Friday, January 19, 2018, 2:39 AM EST
Back to Local

KDAW, Skyhaven Airport

Location: Rochester, NH, United States Lat: 43.283
Local Time: 2:39 AM EST ( 7:39 GMT) Lon: -70.917
Time Zone: US/Eastern Elev: 321 ft

Show me the last for .
Show Coded

Time T Td Feel RH Dir Speed Gust Alt SLP Vis Weather Sky Remarks
2018-01-19 01:51 17 14 - 87 - Calm - 29.89 29.90 10 CLR None
2018-01-19 00:51 19 15 - 84 - Calm - 29.88 29.88 10 CLR 6-hr Min Temp (1am): 16.0°F
6-hr Max Temp (1am): 27.0°F
2018-01-18 23:51 18 15 13 88 320° 3 - 29.89 29.90 10 CLR 24-hr Min Temp (12am): 12.9°F
24-hr Max Temp (12am): 30.0°F
2018-01-18 22:51 21 16 16 80 Variable 3 - 29.91 29.91 10 CLR None
2018-01-18 21:51 22 16 16 77 260° 5 - 29.90 29.91 10 CLR None
2018-01-18 20:51 22 16 - 77 - Calm - 29.90 29.90 10 CLR None
2018-01-18 19:51 25 17 21 71 320° 3 - 29.89 29.89 10 FEW038 None
2018-01-18 18:51 27 17 20 65 300° 6 - 29.87 29.88 10 OVC035 6-hr Min Temp (7pm): 26.1°F
6-hr Max Temp (7pm): 30.0°F
2018-01-18 17:51 28 17 20 62 300° 8 - 29.85 29.86 10 OVC036 None
2018-01-18 16:51 26 16 18 65 320° 8 - 29.83 29.84 10 SCT036 None
2018-01-18 15:51 28 17 18 62 330° 12 - 29.83 29.83 10 CLR None
2018-01-18 14:51 29 18 22 63 350° 7 - 29.81 29.82 10 CLR None
2018-01-18 13:51 29 17 17 60 320° 13 17 29.83 29.83 10 CLR None
2018-01-18 12:51 27 17 17 65 320° 10 - 29.85 29.86 10 CLR 6-hr Min Temp (1pm): 12.9°F
6-hr Max Temp (1pm): 28.0°F
2018-01-18 11:51 26 17 16 68 320° 10 - 29.88 29.88 10 CLR None
2018-01-18 11:17 25 16 15 68 310° 10 - 29.90 - 10 FEW002 None
2018-01-18 10:51 23 16 15 74 310° 7 - 29.91 29.91 10 CLR None
2018-01-18 09:51 22 14 10 71 310° 13 - 29.93 29.93 10 CLR None
2018-01-18 08:51 19 15 14 84 310° 3 - 29.93 29.93 10 CLR None
2018-01-18 07:51 14 13 - 95 - Calm - 29.92 29.93 10 CLR None
2018-01-18 06:51 16 13 - 87 - Calm - 29.92 29.92 10 CLR 24-hr Precip Total (7am): 0.09"
6-hr Min Temp (7am): 14.0°F
6-hr Max Temp (7am): 26.1°F
2018-01-18 05:51 17 14 - 87 - Calm - 29.92 29.92 10 CLR None
2018-01-18 04:51 20 16 15 84 Variable 3 - 29.94 29.94 10 CLR None
2018-01-18 03:51 20 17 - 88 - Calm - 29.95 29.95 10 CLR None
2018-01-18 02:51 22 18 17 84 Variable 3 - 29.96 29.97 10 CLR None

Support USWX by starting your Amazon purchase here.